createdAt,value
2023-03-01T00:04:05.877Z,18.60
2023-03-01T00:09:06.003Z,23.70
2023-03-01T00:14:05.897Z,24.20
2023-03-01T00:19:05.699Z,24.00
2023-03-01T00:24:05.619Z,21.70
2023-03-01T00:29:05.573Z,28.79
2023-03-01T00:34:05.512Z,24.89
2023-03-01T00:39:05.609Z,25.89
2023-03-01T00:44:05.387Z,30.00
2023-03-01T00:49:05.337Z,23.50
2023-03-01T00:54:05.267Z,26.20
2023-03-01T00:59:05.222Z,27.20
2023-03-01T01:04:05.136Z,26.29
2023-03-01T01:09:05.075Z,23.50
2023-03-01T01:14:05.006Z,25.70
2023-03-01T01:19:04.951Z,24.60
2023-03-01T01:24:04.878Z,24.20
2023-03-01T01:29:04.819Z,27.70
2023-03-01T01:34:04.747Z,22.70
2023-03-01T01:39:04.702Z,29.20
2023-03-01T01:44:04.625Z,27.79
2023-03-01T01:49:04.580Z,25.60
2023-03-01T01:54:04.490Z,24.10
2023-03-01T01:59:04.450Z,23.60
2023-03-01T02:04:04.367Z,23.29
2023-03-01T02:09:04.317Z,27.79
2023-03-01T02:14:04.240Z,29.20
2023-03-01T02:19:04.182Z,34.00
2023-03-01T02:24:04.109Z,26.79
2023-03-01T02:29:04.061Z,29.79
2023-03-01T02:34:04.005Z,27.00
2023-03-01T02:39:03.940Z,24.50
2023-03-01T02:44:03.860Z,30.60
2023-03-01T02:49:03.801Z,36.09
2023-03-01T02:54:03.730Z,30.50
2023-03-01T02:59:03.694Z,29.50
2023-03-01T03:04:03.653Z,29.79
2023-03-01T03:09:03.556Z,27.60
2023-03-01T03:14:03.493Z,28.29
2023-03-01T03:19:03.430Z,29.20
2023-03-01T03:24:03.347Z,30.20
2023-03-01T03:29:03.316Z,30.50
2023-03-01T03:34:03.226Z,30.10
2023-03-01T03:39:03.255Z,36.59
2023-03-01T03:44:03.123Z,25.00
2023-03-01T03:49:03.201Z,23.39
2023-03-01T03:54:02.977Z,22.10
2023-03-01T03:59:02.911Z,24.39
2023-03-01T04:04:02.839Z,21.29
2023-03-01T04:09:02.784Z,23.39
2023-03-01T04:14:02.718Z,22.79
2023-03-01T04:19:02.658Z,22.29
2023-03-01T04:24:02.586Z,21.60
2023-03-01T04:29:02.537Z,18.50
2023-03-01T04:34:02.466Z,23.00
2023-03-01T04:39:02.406Z,18.70
2023-03-01T04:44:02.333Z,20.00
2023-03-01T04:49:02.280Z,20.39
2023-03-01T04:54:02.220Z,22.79
2023-03-01T04:59:02.170Z,21.39
2023-03-01T05:04:02.287Z,18.20
2023-03-01T05:09:02.030Z,21.29
2023-03-01T05:14:01.970Z,23.29
2023-03-01T05:19:01.908Z,23.10
2023-03-01T05:24:01.846Z,18.70
2023-03-01T05:29:01.777Z,25.20
2023-03-01T05:34:01.709Z,19.00
2023-03-01T05:39:01.654Z,26.29
2023-03-01T05:44:01.583Z,17.79
2023-03-01T05:49:01.535Z,17.70
2023-03-01T05:54:01.461Z,18.70
2023-03-01T05:59:01.414Z,21.10
2023-03-01T06:04:01.340Z,24.00
2023-03-01T06:09:01.285Z,19.29
2023-03-01T06:14:01.223Z,19.89
2023-03-01T06:19:01.163Z,21.20
2023-03-01T06:24:01.096Z,20.50
2023-03-01T06:29:01.034Z,21.50
2023-03-01T06:34:00.980Z,24.79
2023-03-01T06:39:00.912Z,21.60
2023-03-01T06:44:00.852Z,26.39
2023-03-01T06:49:00.785Z,25.39
2023-03-01T06:54:01.809Z,28.50
2023-03-01T06:59:00.654Z,24.60
2023-03-01T07:04:00.607Z,24.79
2023-03-01T07:09:00.540Z,18.70
2023-03-01T07:14:00.469Z,17.89
2023-03-01T07:19:00.868Z,18.79
2023-03-01T07:24:00.338Z,16.50
2023-03-01T07:29:00.268Z,20.50
2023-03-01T07:34:00.196Z,17.20
2023-03-01T07:39:00.146Z,21.70
2023-03-01T07:44:00.108Z,14.19
2023-03-01T07:49:00.017Z,17.50
2023-03-01T07:53:59.942Z,12.30
2023-03-01T07:58:59.897Z,16.50
2023-03-01T08:03:59.850Z,12.50
2023-03-01T08:08:59.752Z,12.69
2023-03-01T08:13:59.704Z,17.39
2023-03-01T08:18:59.618Z,14.19
2023-03-01T08:23:59.554Z,15.30
2023-03-01T08:28:59.487Z,12.50
2023-03-01T08:33:59.423Z,14.10
2023-03-01T08:38:59.358Z,12.69
2023-03-01T08:43:59.301Z,13.10
2023-03-01T08:48:59.223Z,15.69
2023-03-01T08:53:59.152Z,15.00
2023-03-01T09:00:54.526Z,14.69
2023-03-01T09:05:48.459Z,13.60
2023-03-01T09:10:48.377Z,14.19
2023-03-01T09:15:48.313Z,13.39
2023-03-01T09:20:48.266Z,14.50
2023-03-01T09:25:48.201Z,14.89
2023-03-01T09:30:48.154Z,14.00
2023-03-01T09:35:48.122Z,14.60
2023-03-01T09:40:47.981Z,14.69
2023-03-01T09:45:47.978Z,13.00
2023-03-01T09:50:47.862Z,15.50
2023-03-01T09:55:47.786Z,13.19
2023-03-01T10:00:47.710Z,13.80
2023-03-01T10:05:47.653Z,15.00
2023-03-01T10:10:47.578Z,14.89
2023-03-01T10:15:47.646Z,16.60
2023-03-01T10:20:47.456Z,12.39
2023-03-01T10:25:47.395Z,13.10
2023-03-01T10:32:36.639Z,13.89
2023-03-01T10:37:42.580Z,14.39
2023-03-01T10:42:36.492Z,13.69
2023-03-01T10:47:36.434Z,11.19
2023-03-01T10:52:36.366Z,11.19
2023-03-01T10:57:36.306Z,11.39
2023-03-01T11:02:36.320Z,13.60
2023-03-01T11:07:36.181Z,12.60
2023-03-01T11:12:36.116Z,13.19
2023-03-01T11:17:47.926Z,13.19
2023-03-01T11:22:38.059Z,12.50
2023-03-01T11:27:37.686Z,13.89
2023-03-01T11:32:35.980Z,12.69
2023-03-01T11:37:35.790Z,14.10
2023-03-01T11:42:35.737Z,17.60
2023-03-01T11:47:35.846Z,15.19
2023-03-01T11:52:35.585Z,12.30
2023-03-01T11:57:43.312Z,11.89
2023-03-01T12:02:35.507Z,16.29
2023-03-01T12:07:35.392Z,13.89
2023-03-01T12:12:35.365Z,13.19
2023-03-01T12:17:35.258Z,15.19
2023-03-01T12:22:35.181Z,13.50
2023-03-01T12:27:35.125Z,13.19
2023-03-01T12:32:36.401Z,12.50
2023-03-01T12:37:34.999Z,14.80
2023-03-01T12:42:34.927Z,11.10
2023-03-01T12:47:34.875Z,15.50
2023-03-01T12:52:34.790Z,13.89
2023-03-01T12:57:34.744Z,20.10
2023-03-01T13:02:34.678Z,14.89
2023-03-01T13:07:34.608Z,14.39
2023-03-01T13:12:34.530Z,16.20
2023-03-01T13:17:34.500Z,18.60
2023-03-01T13:22:36.561Z,16.20
2023-03-01T13:27:34.441Z,17.10
2023-03-01T13:32:43.543Z,14.50
2023-03-01T13:37:34.457Z,18.89
2023-03-01T13:42:34.434Z,19.79
2023-03-01T13:47:34.377Z,17.10
2023-03-01T13:52:34.358Z,14.80
2023-03-01T13:57:34.395Z,18.00
2023-03-01T14:02:33.873Z,19.60
2023-03-01T14:07:33.822Z,11.50
2023-03-01T14:12:33.739Z,11.60
2023-03-01T14:17:33.687Z,16.29
2023-03-01T14:22:33.603Z,12.10
2023-03-01T14:27:33.549Z,13.89
2023-03-01T14:32:33.623Z,12.00
2023-03-01T14:37:33.417Z,12.00
2023-03-01T14:42:33.334Z,15.50
2023-03-01T14:47:33.289Z,11.60
2023-03-01T14:52:33.212Z,11.30
2023-03-01T14:57:33.180Z,16.00
2023-03-01T15:02:33.080Z,10.50
2023-03-01T15:07:33.026Z,14.30
2023-03-01T15:12:32.953Z,19.10
2023-03-01T15:17:32.893Z,13.30
2023-03-01T15:22:32.815Z,13.30
2023-03-01T15:27:32.766Z,13.10
2023-03-01T15:32:32.754Z,12.80
2023-03-01T15:37:32.639Z,12.69
2023-03-01T15:42:32.565Z,15.00
2023-03-01T15:47:32.504Z,13.19
2023-03-01T15:52:32.457Z,17.10
2023-03-01T15:57:32.382Z,12.80
2023-03-01T16:02:32.338Z,15.50
2023-03-01T16:07:32.227Z,16.39
2023-03-01T16:12:32.156Z,19.50
2023-03-01T16:17:32.097Z,13.89
2023-03-01T16:22:32.030Z,15.30
2023-03-01T16:27:31.973Z,13.89
2023-03-01T16:32:31.976Z,15.60
2023-03-01T16:37:31.837Z,14.30
2023-03-01T16:42:31.766Z,14.50
2023-03-01T16:47:31.707Z,14.80
2023-03-01T16:52:31.639Z,11.30
2023-03-01T16:57:31.580Z,13.60
2023-03-01T17:02:31.505Z,15.30
2023-03-01T17:07:31.448Z,12.69
2023-03-01T17:12:31.372Z,15.60
2023-03-01T17:17:31.317Z,16.50
2023-03-01T17:22:31.254Z,12.50
2023-03-01T17:27:31.188Z,13.80
2023-03-01T17:32:31.278Z,15.10
2023-03-01T17:37:31.057Z,17.00
2023-03-01T17:42:30.998Z,15.19
2023-03-01T17:47:30.930Z,17.20
2023-03-01T17:52:30.865Z,17.00
2023-03-01T17:57:30.799Z,19.79
2023-03-01T18:02:30.782Z,16.60
2023-03-01T18:07:30.672Z,16.20
2023-03-01T18:12:31.639Z,12.50
2023-03-01T18:17:30.531Z,24.20
2023-03-01T18:22:30.460Z,13.89
2023-03-01T18:27:30.410Z,13.00
2023-03-01T18:32:30.389Z,15.19
2023-03-01T18:37:30.271Z,11.19
2023-03-01T18:42:30.204Z,15.19
2023-03-01T18:47:30.148Z,18.39
2023-03-01T18:52:30.082Z,17.89
2023-03-01T18:57:30.006Z,19.20
2023-03-01T19:02:30.017Z,19.00
2023-03-01T19:07:29.882Z,14.80
2023-03-01T19:12:29.817Z,13.89
2023-03-01T19:17:29.998Z,13.60
2023-03-01T19:22:29.787Z,13.60
2023-03-01T19:27:29.719Z,19.50
2023-03-01T19:32:29.660Z,20.00
2023-03-01T19:37:29.494Z,19.79
2023-03-01T19:42:29.457Z,13.50
2023-03-01T19:47:29.366Z,18.00
2023-03-01T19:52:29.305Z,10.50
2023-03-01T19:57:29.240Z,14.19
2023-03-01T20:02:29.478Z,14.19
2023-03-01T20:07:29.114Z,11.89
2023-03-01T20:12:29.053Z,14.69
2023-03-01T20:17:28.989Z,14.00
2023-03-01T20:22:28.935Z,10.39
2023-03-01T20:27:28.864Z,8.60
2023-03-01T20:32:28.824Z,11.69
2023-03-01T20:37:28.745Z,11.10
2023-03-01T20:42:28.688Z,8.50
2023-03-01T20:47:28.614Z,12.80
2023-03-01T20:52:34.155Z,10.50
2023-03-01T20:57:28.494Z,11.39
2023-03-01T21:02:28.428Z,11.39
2023-03-01T21:07:28.368Z,9.80
2023-03-01T21:12:28.304Z,10.10
2023-03-01T21:17:28.243Z,11.10
2023-03-01T21:22:28.170Z,10.89
2023-03-01T21:27:28.115Z,10.50
2023-03-01T21:32:28.117Z,10.50
2023-03-01T21:37:27.993Z,10.10
2023-03-01T21:42:27.924Z,11.60
2023-03-01T21:47:27.869Z,9.30
2023-03-01T21:52:27.796Z,11.00
2023-03-01T21:57:27.739Z,10.69
2023-03-01T22:02:27.665Z,9.69
2023-03-01T22:07:27.632Z,14.00
2023-03-01T22:12:27.560Z,10.50
2023-03-01T22:17:27.485Z,9.30
2023-03-01T22:22:27.417Z,10.89
2023-03-01T22:27:27.352Z,11.80
2023-03-01T22:32:27.353Z,12.00
2023-03-01T22:37:27.238Z,8.39
2023-03-01T22:42:27.164Z,8.89
2023-03-01T22:47:27.120Z,9.69
2023-03-01T22:52:27.033Z,10.60
2023-03-01T22:57:26.991Z,10.10
2023-03-01T23:02:27.067Z,10.69
2023-03-01T23:07:26.860Z,14.69
2023-03-01T23:14:22.230Z,14.19
2023-03-01T23:19:16.144Z,11.89
2023-03-01T23:24:16.134Z,12.10
2023-03-01T23:29:16.021Z,10.50
2023-03-01T23:34:15.951Z,14.19
2023-03-01T23:39:15.889Z,12.89
2023-03-01T23:44:15.821Z,16.00
2023-03-01T23:49:15.766Z,12.60
2023-03-01T23:54:15.693Z,11.00
2023-03-01T23:59:15.637Z,12.10
